Time;durP1;ratioP1;P1;durP2;ratioP2;P2;SDS_P1;SDS_P2;PMS_P1;PMS_P2;Temp;Humidity;BMP_temperature;BMP_pressure;BME280_temperature;BME280_humidity;BME280_pressure;Samples;Min_cycle;Max_cycle;Signal;HPM_P1;HPM_P2
2024/03/28 00:01:30;;;;;;;1.17;0.50;;;10.40;55.40;;;;;;2367788;53;21541;-66
2024/03/28 00:03:57;;;;;;;0.95;0.40;;;10.40;55.40;;;;;;2348858;53;21027;-67
2024/03/28 00:06:23;;;;;;;1.92;0.60;;;10.30;55.30;;;;;;2364093;53;21050;-65
2024/03/28 00:08:50;;;;;;;1.25;0.60;;;10.30;55.30;;;;;;2367579;53;20950;-67
2024/03/28 00:11:16;;;;;;;1.45;0.40;;;10.30;55.20;;;;;;2368429;53;20962;-66
2024/03/28 00:13:42;;;;;;;1.95;0.50;;;10.20;55.10;;;;;;2367634;53;20922;-66
2024/03/28 00:16:09;;;;;;;1.05;0.40;;;10.20;55.10;;;;;;2367765;53;20973;-66
2024/03/28 00:18:36;;;;;;;1.17;0.45;;;10.20;55.20;;;;;;2368185;53;21073;-66
2024/03/28 00:21:02;;;;;;;1.00;0.50;;;10.10;55.10;;;;;;2367866;53;20991;-65
2024/03/28 00:23:29;;;;;;;0.95;0.40;;;10.10;55.10;;;;;;2368128;53;21377;-66
2024/03/28 00:25:56;;;;;;;1.65;0.60;;;10.10;55.20;;;;;;2368335;53;21182;-66
2024/03/28 00:28:22;;;;;;;1.35;0.50;;;10.00;55.10;;;;;;2368161;53;21448;-66
2024/03/28 00:30:51;;;;;;;1.45;0.55;;;10.00;55.10;;;;;;2367890;53;20978;-66
2024/03/28 00:33:18;;;;;;;1.62;0.50;;;10.00;55.10;;;;;;2367162;53;21221;-66
2024/03/28 00:35:46;;;;;;;1.58;0.55;;;10.00;55.10;;;;;;2341135;53;20946;-66
2024/03/28 00:38:13;;;;;;;0.98;0.40;;;10.00;55.10;;;;;;2368651;53;20993;-66
2024/03/28 00:41:01;;;;;;;0.90;0.50;;;10.00;55.10;;;;;;2366758;53;21651;-67
2024/03/28 00:43:27;;;;;;;0.65;0.40;;;10.00;54.80;;;;;;2367619;53;21384;-66
2024/03/28 00:45:53;;;;;;;0.50;0.40;;;9.90;56.00;;;;;;2367843;53;20997;-66
2024/03/28 00:48:20;;;;;;;0.70;0.30;;;9.90;56.00;;;;;;2368263;53;21070;-65
2024/03/28 00:50:53;;;;;;;1.40;0.50;;;9.90;56.00;;;;;;2368251;53;21181;-67
2024/03/28 00:53:19;;;;;;;1.30;0.50;;;10.00;55.10;;;;;;2372579;53;21001;-67
2024/03/28 00:55:46;;;;;;;0.88;0.40;;;9.90;56.00;;;;;;2358776;53;20959;-66
2024/03/28 00:58:13;;;;;;;0.98;0.43;;;9.90;56.00;;;;;;2353361;53;21417;-65
2024/03/28 01:00:40;;;;;;;0.52;0.28;;;9.90;56.00;;;;;;2367714;53;21381;-67
2024/03/28 01:03:06;;;;;;;0.50;0.20;;;9.90;56.00;;;;;;2344684;53;21019;-66
2024/03/28 01:05:36;;;;;;;0.32;0.30;;;9.90;56.00;;;;;;2350155;53;21003;-67
2024/03/28 01:08:02;;;;;;;0.62;0.30;;;9.90;56.60;;;;;;2351392;53;20920;-67
2024/03/28 01:10:29;;;;;;;0.47;0.30;;;9.80;55.90;;;;;;2357052;53;20998;-67
2024/03/28 01:12:55;;;;;;;0.75;0.30;;;9.80;55.80;;;;;;2339617;53;21508;-65
2024/03/28 01:15:24;;;;;;;0.57;0.30;;;9.80;55.80;;;;;;2367984;53;20946;-67
2024/03/28 01:17:53;;;;;;;0.35;0.30;;;9.80;55.80;;;;;;2351965;53;21696;-66
2024/03/28 01:20:19;;;;;;;0.85;0.30;;;9.80;55.80;;;;;;2360471;53;21002;-65
2024/03/28 01:22:46;;;;;;;0.85;0.40;;;9.80;55.80;;;;;;2367793;53;20950;-65
2024/03/28 01:25:13;;;;;;;0.20;0.20;;;9.80;55.80;;;;;;2368459;53;21197;-66
2024/03/28 01:27:39;;;;;;;0.82;0.30;;;9.80;55.80;;;;;;2367913;53;20942;-65
2024/03/28 01:30:09;;;;;;;0.77;0.40;;;9.80;55.80;;;;;;2368246;53;21042;-67
2024/03/28 01:32:36;;;;;;;1.02;0.45;;;9.80;55.80;;;;;;2368240;53;21275;-66
2024/03/28 01:35:02;;;;;;;1.08;0.32;;;9.80;55.80;;;;;;2366879;53;21381;-67
2024/03/28 01:37:29;;;;;;;0.50;0.22;;;9.80;55.80;;;;;;2357123;53;21219;-67
2024/03/28 01:39:55;;;;;;;1.87;0.50;;;9.80;55.80;;;;;;2354508;53;20970;-65
2024/03/28 01:42:21;;;;;;;1.15;0.35;;;9.80;55.70;;;;;;2344873;53;20948;-65
2024/03/28 01:44:48;;;;;;;1.42;0.50;;;9.80;55.70;;;;;;2343514;54;20910;-66
2024/03/28 01:47:14;;;;;;;2.10;0.50;;;9.70;55.70;;;;;;2367534;53;20930;-65
2024/03/28 01:49:43;;;;;;;0.70;0.32;;;9.60;55.60;;;;;;2368501;53;20962;-66
2024/03/28 01:52:13;;;;;;;0.77;0.40;;;9.70;55.70;;;;;;2368315;53;20981;-66
2024/03/28 01:54:39;;;;;;;0.98;0.30;;;9.70;55.70;;;;;;2368022;53;21058;-66
2024/03/28 01:57:07;;;;;;;1.33;0.45;;;9.70;55.70;;;;;;2366653;53;21005;-67
2024/03/28 01:59:34;;;;;;;2.03;0.80;;;9.70;55.60;;;;;;2367813;53;21731;-66
2024/03/28 02:02:01;;;;;;;2.55;0.90;;;9.70;55.60;;;;;;2367431;53;21411;-65
2024/03/28 02:04:28;;;;;;;2.50;0.88;;;9.70;55.60;;;;;;2367728;53;20978;-65
2024/03/28 02:06:54;;;;;;;1.52;0.70;;;9.60;56.10;;;;;;2367458;53;20974;-67
2024/03/28 02:09:21;;;;;;;1.40;0.65;;;9.60;55.60;;;;;;2367903;53;21643;-66
2024/03/28 02:11:47;;;;;;;1.65;0.52;;;9.60;55.50;;;;;;2367816;53;21034;-67
2024/03/28 02:14:14;;;;;;;1.77;0.70;;;9.50;55.40;;;;;;2367522;53;20950;-66
2024/03/28 02:16:41;;;;;;;1.85;0.70;;;9.50;55.40;;;;;;2367709;53;20982;-67
2024/03/28 02:19:08;;;;;;;2.00;0.70;;;9.50;55.40;;;;;;2367768;53;20962;-66
2024/03/28 02:21:34;;;;;;;1.77;0.70;;;9.40;55.30;;;;;;2368046;53;20946;-66
2024/03/28 02:24:01;;;;;;;1.90;0.70;;;9.40;55.30;;;;;;2368169;53;21230;-65
2024/03/28 02:26:28;;;;;;;1.87;0.75;;;9.30;55.20;;;;;;2367494;53;21767;-65
2024/03/28 02:28:55;;;;;;;1.73;0.60;;;9.30;55.20;;;;;;2368059;53;20922;-66
2024/03/28 02:31:21;;;;;;;1.52;0.55;;;9.20;55.20;;;;;;2353714;53;21379;-67
2024/03/28 02:33:48;;;;;;;1.83;0.60;;;9.20;55.20;;;;;;2359173;53;21313;-66
2024/03/28 02:36:14;;;;;;;1.45;0.50;;;9.10;55.20;;;;;;2368043;53;20942;-64
2024/03/28 02:38:40;;;;;;;1.50;0.60;;;9.10;55.20;;;;;;2367812;53;20930;-66
2024/03/28 02:41:07;;;;;;;2.12;0.60;;;9.00;55.20;;;;;;2367671;53;21018;-66
2024/03/28 02:43:33;;;;;;;1.77;0.60;;;9.00;55.20;;;;;;2368011;53;20946;-65
2024/03/28 02:46:00;;;;;;;1.70;0.60;;;8.90;55.10;;;;;;2367774;53;21656;-66
2024/03/28 02:48:26;;;;;;;2.20;0.65;;;8.90;55.20;;;;;;2368413;53;20935;-66
2024/03/28 02:50:52;;;;;;;1.95;0.70;;;8.80;55.20;;;;;;2367929;53;20918;-66
2024/03/28 02:53:18;;;;;;;2.05;0.73;;;8.80;55.30;;;;;;2368147;53;20934;-66
2024/03/28 02:55:50;;;;;;;1.70;0.70;;;8.70;55.20;;;;;;2368302;53;21018;-67
2024/03/28 02:58:17;;;;;;;2.15;0.80;;;8.70;55.20;;;;;;2367905;53;20975;-66
2024/03/28 03:00:44;;;;;;;2.05;0.70;;;8.60;55.10;;;;;;2368326;53;21645;-66
2024/03/28 03:03:11;;;;;;;2.33;0.60;;;8.60;55.20;;;;;;2368080;53;20990;-67
2024/03/28 03:05:38;;;;;;;1.58;0.57;;;8.50;55.10;;;;;;2367993;53;21333;-66
2024/03/28 03:08:05;;;;;;;2.05;0.80;;;8.50;55.20;;;;;;2368019;53;21616;-67
2024/03/28 03:10:31;;;;;;;1.37;0.55;;;8.40;55.10;;;;;;2367795;53;20914;-67
2024/03/28 03:12:57;;;;;;;1.55;0.60;;;8.40;55.20;;;;;;2340446;54;20958;-67
2024/03/28 03:15:24;;;;;;;1.62;0.60;;;8.30;55.10;;;;;;2368122;53;20981;-66
2024/03/28 03:17:50;;;;;;;2.42;0.70;;;8.30;55.20;;;;;;2368003;53;20989;-65
2024/03/28 03:20:17;;;;;;;2.30;0.68;;;8.20;55.10;;;;;;2368078;53;21806;-66
2024/03/28 03:22:52;;;;;;;2.60;0.90;;;8.20;55.20;;;;;;2367944;53;20942;-67
2024/03/28 03:25:26;;;;;;;1.80;0.73;;;8.10;55.20;;;;;;2368308;53;21022;-66
2024/03/28 03:36:07;;;;;;;1.95;0.70;;;7.90;55.20;;;;;;2367268;53;20978;-67
2024/03/28 03:38:33;;;;;;;1.70;0.70;;;7.80;55.10;;;;;;2367588;53;20984;-66
2024/03/28 03:41:00;;;;;;;2.22;0.80;;;7.80;55.10;;;;;;2367431;53;21045;-67
2024/03/28 03:43:27;;;;;;;1.90;0.80;;;7.70;55.10;;;;;;2368552;53;21293;-66
2024/03/28 03:45:53;;;;;;;1.67;0.70;;;7.70;55.20;;;;;;2368033;53;21692;-67
2024/03/28 03:48:19;;;;;;;2.05;0.73;;;7.70;55.30;;;;;;2368208;53;20918;-66
2024/03/28 03:50:46;;;;;;;1.95;0.80;;;7.60;55.20;;;;;;2367819;53;21030;-67
2024/03/28 03:53:12;;;;;;;2.05;0.80;;;7.60;55.40;;;;;;2367812;53;20990;-65
2024/03/28 03:55:39;;;;;;;1.33;0.52;;;7.50;55.40;;;;;;2367868;53;20930;-66
2024/03/28 03:58:07;;;;;;;1.92;0.77;;;7.50;55.40;;;;;;2367434;53;21669;-67
2024/03/28 04:00:34;;;;;;;1.25;0.60;;;7.50;55.50;;;;;;2367584;53;20950;-66
2024/03/28 04:03:00;;;;;;;1.70;0.70;;;7.40;55.50;;;;;;2367939;53;20915;-67
2024/03/28 04:05:26;;;;;;;1.52;0.60;;;7.40;55.50;;;;;;2335391;54;21389;-67
2024/03/28 04:07:52;;;;;;;1.75;0.62;;;7.40;55.50;;;;;;2358108;53;20918;-66
2024/03/28 04:10:20;;;;;;;0.85;0.50;;;7.30;55.50;;;;;;2367780;53;21386;-65
2024/03/28 04:12:47;;;;;;;1.75;0.60;;;7.20;55.50;;;;;;2368181;53;20985;-66
2024/03/28 04:15:13;;;;;;;1.35;0.60;;;7.20;55.60;;;;;;2368049;53;20939;-66
2024/03/28 04:17:40;;;;;;;1.90;0.70;;;7.20;55.60;;;;;;2367946;53;20941;-66
2024/03/28 04:20:11;;;;;;;1.35;0.52;;;7.20;55.70;;;;;;2367491;53;21404;-67
2024/03/28 04:22:37;;;;;;;1.75;0.60;;;7.20;55.70;;;;;;2367532;53;21369;-67
2024/03/28 04:25:04;;;;;;;1.50;0.50;;;7.20;56.40;;;;;;2367330;53;21562;-66
2024/03/28 04:27:31;;;;;;;1.20;0.50;;;7.10;55.80;;;;;;2368090;53;20987;-66
2024/03/28 04:29:57;;;;;;;1.20;0.50;;;6.90;55.80;;;;;;2344241;54;20962;-65
2024/03/28 04:32:28;;;;;;;1.17;0.50;;;7.10;56.00;;;;;;2368145;53;21575;-65
2024/03/28 04:34:55;;;;;;;0.93;0.40;;;7.10;56.10;;;;;;2368062;53;20934;-66
2024/03/28 04:37:21;;;;;;;0.80;0.40;;;7.10;56.30;;;;;;2368018;53;20938;-67
2024/03/28 04:39:47;;;;;;;0.70;0.40;;;7.10;56.50;;;;;;2368550;53;21241;-67
2024/03/28 04:42:14;;;;;;;1.42;0.40;;;7.10;56.70;;;;;;2368437;53;20928;-66
2024/03/28 04:44:40;;;;;;;0.62;0.40;;;7.10;56.90;;;;;;2367765;53;21010;-65
2024/03/28 04:47:09;;;;;;;0.98;0.50;;;7.20;57.10;;;;;;2367802;53;20950;-66
2024/03/28 04:49:36;;;;;;;1.02;0.50;;;7.30;57.30;;;;;;2356221;53;20981;-64
2024/03/28 04:52:02;;;;;;;2.12;0.60;;;7.40;57.30;;;;;;2337251;54;20959;-66
2024/03/28 04:54:29;;;;;;;1.52;0.80;;;7.40;57.30;;;;;;2361130;53;21083;-66
2024/03/28 04:56:55;;;;;;;2.25;0.90;;;7.50;57.30;;;;;;2359129;53;20951;-64
2024/03/28 04:59:21;;;;;;;2.10;0.95;;;7.60;57.40;;;;;;2335256;53;21255;-66
2024/03/28 05:01:48;;;;;;;2.78;1.00;;;7.60;57.40;;;;;;2334752;53;20951;-66
2024/03/28 05:04:14;;;;;;;1.87;0.70;;;7.70;57.50;;;;;;2356964;53;20954;-66
2024/03/28 05:06:44;;;;;;;3.08;0.93;;;7.70;57.40;;;;;;2367991;53;21229;-65
2024/03/28 05:09:10;;;;;;;2.83;0.80;;;7.80;57.50;;;;;;2367767;53;20966;-66
2024/03/28 05:11:36;;;;;;;1.40;0.70;;;7.90;57.50;;;;;;2367560;53;20930;-65
2024/03/28 05:14:02;;;;;;;1.85;0.75;;;7.90;57.40;;;;;;2367921;53;20922;-66
2024/03/28 05:16:29;;;;;;;2.40;0.95;;;8.00;57.40;;;;;;2367772;53;20993;-66
2024/03/28 05:18:55;;;;;;;1.90;0.80;;;8.10;57.50;;;;;;2344926;54;20940;-66
2024/03/28 05:21:22;;;;;;;2.35;0.88;;;8.10;57.40;;;;;;2366021;53;20998;-64
2024/03/28 05:23:50;;;;;;;1.95;0.90;;;8.20;57.50;;;;;;2368447;53;21385;-65
2024/03/28 05:26:16;;;;;;;1.62;0.73;;;8.20;57.40;;;;;;2367448;53;21021;-65
2024/03/28 05:28:42;;;;;;;1.87;0.80;;;8.30;57.40;;;;;;2368295;53;20930;-67
2024/03/28 05:31:16;;;;;;;2.12;0.60;;;8.40;57.40;;;;;;2368325;53;20942;-64
2024/03/28 05:33:42;;;;;;;2.10;0.80;;;8.50;57.50;;;;;;2367845;53;21273;-67
2024/03/28 05:36:11;;;;;;;3.33;0.80;;;8.50;57.40;;;;;;2367945;53;21052;-66
2024/03/28 05:38:38;;;;;;;3.40;1.20;;;8.60;57.50;;;;;;2368719;53;21407;-67
2024/03/28 05:41:04;;;;;;;2.37;0.80;;;8.60;57.40;;;;;;2367721;53;20958;-67
2024/03/28 05:43:30;;;;;;;2.50;0.93;;;8.70;57.50;;;;;;2367458;53;20977;-67
2024/03/28 05:45:56;;;;;;;1.30;0.60;;;8.70;57.50;;;;;;2367539;53;20942;-65
2024/03/28 05:48:24;;;;;;;9.50;4.20;;;8.80;57.50;;;;;;2367851;53;21871;-65
2024/03/28 05:50:50;;;;;;;36.40;17.08;;;8.80;57.50;;;;;;2368097;53;20981;-67
2024/03/28 05:53:16;;;;;;;43.03;18.87;;;8.90;57.50;;;;;;2367769;53;21045;-66
2024/03/28 05:55:42;;;;;;;37.03;17.52;;;8.90;57.50;;;;;;2367103;53;21394;-66
2024/03/28 05:58:09;;;;;;;29.45;13.90;;;9.00;57.60;;;;;;2367053;53;20963;-66
2024/03/28 06:00:36;;;;;;;21.60;10.38;;;9.00;57.60;;;;;;2367482;53;21443;-66
2024/03/28 06:03:02;;;;;;;16.05;8.23;;;9.00;57.60;;;;;;2368438;53;21673;-66
2024/03/28 06:05:29;;;;;;;12.85;6.35;;;9.10;57.70;;;;;;2367695;53;21788;-68
2024/03/28 06:07:56;;;;;;;11.77;5.12;;;9.10;57.70;;;;;;2367975;53;21167;-67
2024/03/28 06:10:23;;;;;;;7.95;3.67;;;9.20;57.80;;;;;;2367370;53;21041;-66
2024/03/28 06:12:50;;;;;;;8.70;4.18;;;9.30;57.90;;;;;;2368056;53;21010;-66
2024/03/28 06:15:17;;;;;;;8.05;3.75;;;9.30;57.80;;;;;;2367762;53;21479;-67
2024/03/28 06:17:43;;;;;;;6.30;2.90;;;9.30;57.80;;;;;;2368000;53;21680;-66
2024/03/28 06:20:10;;;;;;;6.90;2.92;;;9.40;57.90;;;;;;2368160;53;20946;-65
2024/03/28 06:22:38;;;;;;;5.00;2.15;;;9.40;57.90;;;;;;2367712;53;20946;-66
2024/03/28 06:25:06;;;;;;;3.97;1.30;;;9.50;57.90;;;;;;2367827;53;20994;-67
2024/03/28 06:27:32;;;;;;;2.72;0.93;;;9.50;57.90;;;;;;2367780;53;20962;-65
2024/03/28 06:29:58;;;;;;;2.45;0.90;;;9.60;58.00;;;;;;2368296;53;20914;-65
2024/03/28 06:32:25;;;;;;;1.48;0.70;;;9.60;58.00;;;;;;2367589;53;20930;-66
2024/03/28 06:34:52;;;;;;;1.90;0.60;;;9.60;58.10;;;;;;2368319;53;21912;-66
2024/03/28 06:37:19;;;;;;;1.67;0.70;;;9.70;58.20;;;;;;2367678;53;20954;-66
2024/03/28 06:39:45;;;;;;;1.35;0.60;;;9.70;58.20;;;;;;2367911;53;21038;-67
2024/03/28 06:42:12;;;;;;;3.17;0.60;;;9.80;58.30;;;;;;2366897;53;21433;-65
2024/03/28 06:44:48;;;;;;;1.45;0.60;;;9.80;58.20;;;;;;2367988;53;21206;-68
2024/03/28 06:47:14;;;;;;;1.42;0.57;;;9.90;58.30;;;;;;2368293;53;21427;-65
2024/03/28 06:49:41;;;;;;;2.12;0.70;;;10.00;57.40;;;;;;2367256;53;21319;-65
2024/03/28 06:52:07;;;;;;;1.80;0.70;;;10.00;57.30;;;;;;2368079;53;21269;-67
2024/03/28 06:54:33;;;;;;;3.37;1.00;;;10.10;57.20;;;;;;2367911;53;21261;-66
2024/03/28 06:57:00;;;;;;;4.60;1.17;;;10.10;57.10;;;;;;2344748;53;20925;-67
2024/03/28 06:59:26;;;;;;;4.15;0.90;;;10.10;57.00;;;;;;2366003;53;21605;-67
2024/03/28 07:01:53;;;;;;;2.50;0.70;;;10.20;57.00;;;;;;2348316;53;21409;-66
2024/03/28 07:04:19;;;;;;;2.05;0.80;;;10.20;56.90;;;;;;2364285;53;21491;-65
2024/03/28 07:06:46;;;;;;;3.72;0.85;;;10.20;56.80;;;;;;2367825;53;21005;-66
2024/03/28 07:09:12;;;;;;;3.17;1.00;;;10.20;56.80;;;;;;2368210;53;20950;-66
2024/03/28 07:11:43;;;;;;;2.30;1.00;;;10.30;56.90;;;;;;2368119;53;21253;-65
2024/03/28 07:14:09;;;;;;;2.00;0.70;;;10.30;57.00;;;;;;2367986;53;21605;-66
2024/03/28 07:16:36;;;;;;;2.15;0.80;;;10.30;57.10;;;;;;2359198;53;20947;-67
2024/03/28 07:19:03;;;;;;;2.10;0.80;;;10.30;57.20;;;;;;2353242;53;20946;-66
2024/03/28 07:21:29;;;;;;;2.12;0.88;;;10.30;57.20;;;;;;2367213;53;21428;-66
2024/03/28 07:23:56;;;;;;;1.85;0.68;;;10.40;57.40;;;;;;2367836;53;21534;-67
2024/03/28 07:26:23;;;;;;;2.05;0.70;;;10.40;57.40;;;;;;2367518;53;21001;-65
2024/03/28 07:28:51;;;;;;;1.62;0.60;;;10.40;57.50;;;;;;2362119;53;21027;-66
2024/03/28 07:31:17;;;;;;;1.17;0.60;;;10.40;57.60;;;;;;2348767;53;20918;-66
2024/03/28 07:33:45;;;;;;;2.50;0.70;;;10.50;57.70;;;;;;2367227;53;21408;-67
2024/03/28 07:36:11;;;;;;;1.37;0.57;;;10.50;57.80;;;;;;2367847;53;21257;-67
2024/03/28 07:38:37;;;;;;;1.67;0.60;;;10.60;57.90;;;;;;2345017;53;21388;-67
2024/03/28 07:41:05;;;;;;;1.90;0.70;;;10.60;57.90;;;;;;2367012;53;20914;-67
2024/03/28 07:43:31;;;;;;;1.45;0.62;;;10.60;58.00;;;;;;2367341;53;21069;-66
2024/03/28 07:46:01;;;;;;;1.80;0.60;;;10.70;58.00;;;;;;2366523;53;20938;-67
2024/03/28 07:48:28;;;;;;;1.30;0.50;;;10.70;58.10;;;;;;2367475;53;21002;-67
2024/03/28 07:50:58;;;;;;;2.03;0.70;;;10.80;58.10;;;;;;2343470;53;20953;-67
2024/03/28 07:53:24;;;;;;;1.52;0.52;;;10.80;58.10;;;;;;2367362;53;21009;-68
2024/03/28 07:55:50;;;;;;;1.42;0.60;;;10.90;58.10;;;;;;2367423;53;20964;-65
2024/03/28 07:58:17;;;;;;;1.02;0.52;;;10.90;58.10;;;;;;2367118;53;20970;-66
2024/03/28 08:00:43;;;;;;;1.33;0.50;;;11.00;58.10;;;;;;2367744;53;21443;-67
2024/03/28 08:03:09;;;;;;;1.08;0.43;;;11.00;58.10;;;;;;2367745;53;21018;-66
2024/03/28 08:05:36;;;;;;;1.83;0.60;;;11.00;58.00;;;;;;2367648;53;20922;-67
2024/03/28 08:08:03;;;;;;;1.10;0.57;;;11.10;58.00;;;;;;2368131;53;21045;-68
2024/03/28 08:10:31;;;;;;;3.12;0.45;;;11.10;57.90;;;;;;2367687;53;21766;-66
2024/03/28 08:13:00;;;;;;;1.20;0.50;;;11.20;57.90;;;;;;2367849;53;20946;-66
2024/03/28 08:15:26;;;;;;;1.30;0.50;;;11.20;57.80;;;;;;2367801;53;20938;-67
2024/03/28 08:17:52;;;;;;;1.62;0.50;;;11.20;57.80;;;;;;2368729;53;20910;-66
2024/03/28 08:20:20;;;;;;;1.33;0.50;;;11.20;57.70;;;;;;2367086;53;20910;-67
2024/03/28 08:22:47;;;;;;;1.50;0.57;;;11.20;57.60;;;;;;2367937;53;20930;-65
2024/03/28 08:25:14;;;;;;;2.22;0.60;;;11.30;57.70;;;;;;2367330;53;21483;-66
2024/03/28 08:27:40;;;;;;;1.20;0.40;;;11.30;57.60;;;;;;2367524;53;21412;-67
2024/03/28 08:30:08;;;;;;;1.33;0.50;;;11.30;57.60;;;;;;2368217;53;21054;-67
2024/03/28 08:32:34;;;;;;;1.75;0.65;;;11.30;57.60;;;;;;2343490;54;21003;-66
2024/03/28 08:35:02;;;;;;;0.90;0.40;;;11.40;57.60;;;;;;2367665;53;20939;-68
2024/03/28 08:37:28;;;;;;;1.15;0.50;;;11.40;57.60;;;;;;2367418;53;20989;-68
2024/03/28 08:39:58;;;;;;;0.68;0.40;;;11.40;57.60;;;;;;2367059;53;21387;-68
2024/03/28 08:42:24;;;;;;;0.68;0.40;;;11.40;57.50;;;;;;2367593;53;20973;-66
2024/03/28 08:44:50;;;;;;;4.93;0.55;;;11.40;57.50;;;;;;2367860;53;21217;-67
2024/03/28 08:47:17;;;;;;;1.92;0.70;;;11.50;57.50;;;;;;2367971;53;20969;-67
2024/03/28 08:49:43;;;;;;;0.95;0.43;;;11.50;57.50;;;;;;2367970;53;21005;-67
2024/03/28 08:52:10;;;;;;;1.12;0.50;;;11.50;57.40;;;;;;2367971;53;20986;-66
2024/03/28 08:54:38;;;;;;;2.58;0.40;;;11.50;57.40;;;;;;2367314;53;20953;-67
2024/03/28 08:57:07;;;;;;;0.93;0.40;;;11.60;57.50;;;;;;2367711;53;21037;-66
2024/03/28 08:59:34;;;;;;;1.15;0.50;;;11.60;57.50;;;;;;2367546;53;21494;-67
2024/03/28 09:02:00;;;;;;;1.20;0.40;;;11.60;57.50;;;;;;2343534;54;20937;-66
2024/03/28 09:04:27;;;;;;;1.35;0.50;;;11.60;57.50;;;;;;2367711;53;21793;-67
2024/03/28 09:06:53;;;;;;;1.00;0.40;;;11.60;57.50;;;;;;2367826;53;21005;-67
2024/03/28 09:09:19;;;;;;;0.95;0.40;;;11.70;57.50;;;;;;2367871;53;21328;-67
2024/03/28 09:11:46;;;;;;;0.90;0.40;;;11.70;57.50;;;;;;2367564;53;20978;-67
2024/03/28 09:14:12;;;;;;;1.37;0.50;;;11.80;57.70;;;;;;2368094;53;21522;-66
2024/03/28 09:16:39;;;;;;;1.20;0.45;;;11.80;57.60;;;;;;2367849;53;21014;-65
2024/03/28 09:19:06;;;;;;;1.12;0.40;;;11.80;57.60;;;;;;2368079;53;21372;-67
2024/03/28 09:21:32;;;;;;;1.37;0.43;;;11.80;57.60;;;;;;2367169;53;20927;-67
2024/03/28 09:26:36;;;;;;;1.80;0.65;;;11.90;57.70;;;;;;2488478;54;22810;-66
2024/03/28 09:29:03;;;;;;;2.42;0.55;;;12.00;57.70;;;;;;2251965;55;21009;-67
2024/03/28 09:31:29;;;;;;;1.90;0.73;;;12.00;57.70;;;;;;2287590;55;21009;-65
2024/03/28 09:33:55;;;;;;;1.70;0.65;;;12.10;57.70;;;;;;2293197;55;21015;-67
2024/03/28 09:36:21;;;;;;;2.30;0.62;;;12.10;57.70;;;;;;2297326;56;21116;-65
2024/03/28 09:38:50;;;;;;;1.10;0.50;;;12.20;57.70;;;;;;2297808;56;21027;-66
2024/03/28 09:41:30;;;;;;;2.75;0.80;;;12.30;57.80;;;;;;2297508;55;20940;-66
2024/03/28 09:44:06;;;;;;;2.12;0.60;;;12.30;57.80;;;;;;2297812;56;20979;-67
2024/03/28 09:46:33;;;;;;;1.75;0.73;;;12.40;57.80;;;;;;2296717;55;20999;-66
2024/03/28 09:49:00;;;;;;;1.02;0.45;;;12.50;58.10;;;;;;2297402;56;21457;-67
2024/03/28 09:51:27;;;;;;;3.30;0.62;;;12.50;58.20;;;;;;2296767;56;21434;-65
2024/03/28 09:53:58;;;;;;;2.55;0.80;;;12.60;58.10;;;;;;2297254;55;20924;-67
2024/03/28 09:56:25;;;;;;;1.87;0.70;;;12.70;58.10;;;;;;2297007;56;20992;-66
2024/03/28 09:58:51;;;;;;;1.45;0.55;;;12.80;58.10;;;;;;2297244;55;20936;-67
2024/03/28 10:01:19;;;;;;;3.05;0.90;;;12.90;58.20;;;;;;2269114;55;20969;-67
2024/03/28 10:03:46;;;;;;;1.87;0.60;;;13.00;58.20;;;;;;2297223;55;20931;-66
2024/03/28 10:06:12;;;;;;;2.17;0.60;;;13.10;58.00;;;;;;2297558;56;21733;-68
2024/03/28 10:08:39;;;;;;;1.52;0.50;;;13.20;58.00;;;;;;2297260;55;20963;-66
2024/03/28 10:11:05;;;;;;;1.25;0.50;;;13.30;58.00;;;;;;2297217;56;20956;-67
2024/03/28 10:13:35;;;;;;;0.98;0.30;;;13.30;57.70;;;;;;2296800;55;21173;-67
2024/03/28 10:16:03;;;;;;;1.50;0.40;;;13.40;57.50;;;;;;2297090;55;20969;-67
2024/03/28 10:18:30;;;;;;;1.08;0.50;;;13.50;57.20;;;;;;2297162;55;21064;-68
2024/03/28 10:20:59;;;;;;;0.35;0.28;;;13.60;57.10;;;;;;2289807;54;20988;-68
2024/03/28 10:23:30;;;;;;;1.08;0.40;;;13.60;57.00;;;;;;2292417;55;20982;-66
2024/03/28 10:25:58;;;;;;;1.17;0.30;;;13.70;56.80;;;;;;2274599;55;20995;-65
2024/03/28 10:28:34;;;;;;;1.10;0.30;;;13.80;56.80;;;;;;2295218;55;21824;-66
2024/03/28 10:31:01;;;;;;;1.65;0.43;;;13.80;56.40;;;;;;2292463;55;21424;-68
2024/03/28 10:33:28;;;;;;;1.08;0.40;;;13.90;56.50;;;;;;2296696;56;21059;-67
2024/03/28 10:35:58;;;;;;;2.00;0.70;;;13.90;56.20;;;;;;2297486;56;20948;-66
2024/03/28 10:38:24;;;;;;;1.98;0.80;;;13.90;56.00;;;;;;2296693;55;21529;-66
2024/03/28 10:40:52;;;;;;;0.95;0.37;;;13.90;56.20;;;;;;2296751;55;21790;-66
2024/03/28 10:43:19;;;;;;;1.45;0.50;;;13.90;56.40;;;;;;2296198;56;20971;-67
2024/03/28 10:45:46;;;;;;;1.62;0.40;;;14.00;56.70;;;;;;2296054;55;21051;-67
2024/03/28 10:48:16;;;;;;;1.05;0.40;;;14.10;56.90;;;;;;2296677;56;21031;-67
2024/03/28 10:52:40;;;;;;;1.73;0.50;;;14.10;56.50;;;;;;2297606;56;20952;-67
2024/03/28 10:55:09;;;;;;;1.62;0.40;;;14.30;56.10;;;;;;2296762;55;21241;-67
2024/03/28 10:57:37;;;;;;;0.98;0.32;;;14.40;56.40;;;;;;2296046;56;21544;-67
2024/03/28 11:00:04;;;;;;;0.50;0.30;;;14.60;56.50;;;;;;2296286;56;20939;-67
2024/03/28 11:02:31;;;;;;;0.52;0.30;;;14.60;56.40;;;;;;2296188;55;20963;-66
2024/03/28 11:04:58;;;;;;;2.12;0.45;;;14.70;55.90;;;;;;2297396;56;20991;-67
2024/03/28 11:07:25;;;;;;;1.30;0.40;;;14.70;55.70;;;;;;2295875;56;20932;-66
2024/03/28 11:09:54;;;;;;;0.55;0.20;;;14.80;55.80;;;;;;2260645;55;20974;-66
2024/03/28 11:12:20;;;;;;;0.50;0.25;;;14.90;55.20;;;;;;2279563;56;21725;-67
2024/03/28 11:14:54;;;;;;;0.43;0.20;;;14.90;55.10;;;;;;2298380;54;21927;-67
2024/03/28 11:17:21;;;;;;;0.30;0.10;;;15.00;54.60;;;;;;2306122;54;20939;-67
2024/03/28 11:19:59;;;;;;;0.10;0.10;;;15.00;54.60;;;;;;2306020;54;20948;-66
2024/03/28 11:22:26;;;;;;;0.20;0.15;;;15.10;54.40;;;;;;2270522;55;21018;-67
2024/03/28 11:24:52;;;;;;;0.40;0.20;;;15.10;54.30;;;;;;2293446;55;20976;-67
2024/03/28 11:27:23;;;;;;;0.45;0.20;;;15.20;53.80;;;;;;2302507;55;21195;-66
2024/03/28 11:29:54;;;;;;;0.52;0.20;;;15.10;53.70;;;;;;2305202;55;21372;-67
2024/03/28 11:32:23;;;;;;;0.10;0.10;;;15.20;54.10;;;;;;2305542;55;20946;-67
2024/03/28 11:34:49;;;;;;;0.40;0.10;;;15.20;54.10;;;;;;2304695;55;20967;-67
2024/03/28 11:37:19;;;;;;;0.35;0.10;;;15.20;54.30;;;;;;2305560;56;21069;-66
2024/03/28 11:39:46;;;;;;;0.10;0.10;;;15.30;54.20;;;;;;2305524;55;20957;-66
2024/03/28 11:42:16;;;;;;;1.90;0.20;;;15.40;54.40;;;;;;2305167;55;21026;-67
2024/03/28 11:44:48;;;;;;;1.02;0.20;;;15.50;54.30;;;;;;2304819;55;21916;-67
2024/03/28 11:47:21;;;;;;;0.52;0.20;;;15.60;54.40;;;;;;2305620;55;20978;-67
2024/03/28 11:49:48;;;;;;;0.98;0.20;;;15.60;54.00;;;;;;2304926;55;21856;-67
2024/03/28 11:52:15;;;;;;;1.48;0.40;;;15.80;54.40;;;;;;2306445;54;21530;-67
2024/03/28 11:54:42;;;;;;;1.35;0.13;;;15.80;53.80;;;;;;2293646;53;21475;-67
2024/03/28 11:57:10;;;;;;;0.90;0.20;;;15.90;53.90;;;;;;2305374;55;21733;-66
2024/03/28 11:59:36;;;;;;;1.70;0.20;;;16.00;53.70;;;;;;2304822;56;21308;-67
2024/03/28 12:02:03;;;;;;;1.45;0.30;;;16.10;53.60;;;;;;2305235;55;21458;-67
2024/03/28 12:04:29;;;;;;;1.35;0.30;;;16.20;53.40;;;;;;2305569;55;20942;-68
2024/03/28 12:06:59;;;;;;;0.40;0.20;;;16.30;53.40;;;;;;2305907;55;20934;-67
2024/03/28 12:09:27;;;;;;;1.17;0.40;;;16.30;53.20;;;;;;2305403;55;20954;-67
2024/03/28 12:12:06;;;;;;;1.23;0.30;;;16.40;53.40;;;;;;2304085;55;21645;-67
2024/03/28 12:14:32;;;;;;;1.85;0.40;;;16.50;52.30;;;;;;2305172;56;20938;-66
2024/03/28 12:16:59;;;;;;;1.23;0.30;;;16.60;52.70;;;;;;2305892;55;20930;-66
2024/03/28 12:19:25;;;;;;;1.58;0.40;;;16.60;52.70;;;;;;2278543;54;21517;-67
2024/03/28 12:22:01;;;;;;;0.90;0.30;;;16.70;52.70;;;;;;2264874;55;21770;-66
2024/03/28 12:24:28;;;;;;;1.60;0.30;;;16.90;52.80;;;;;;2260617;55;21285;-66
2024/03/28 12:26:56;;;;;;;1.10;0.30;;;16.90;52.40;;;;;;2258764;55;21243;-67
2024/03/28 12:29:25;;;;;;;1.25;0.30;;;17.00;52.20;;;;;;2264808;56;20986;-69
2024/03/28 12:32:15;;;;;;;1.23;0.25;;;17.10;51.80;;;;;;2269143;55;21266;-67
2024/03/28 12:34:50;;;;;;;1.25;0.30;;;17.20;50.60;;;;;;2275302;54;21030;-68
2024/03/28 12:37:16;;;;;;;0.45;0.20;;;17.30;51.20;;;;;;2275978;54;20934;-68
2024/03/28 12:39:43;;;;;;;0.47;0.20;;;17.30;51.10;;;;;;2275460;54;20950;-69
2024/03/28 12:42:09;;;;;;;0.30;0.10;;;17.50;50.00;;;;;;2275446;54;21901;-68
2024/03/28 12:44:35;;;;;;;0.75;0.20;;;17.50;50.00;;;;;;2282548;55;20972;-70
2024/03/28 12:47:03;;;;;;;0.77;0.20;;;17.50;49.20;;;;;;2273656;55;20936;-69
2024/03/28 12:49:29;;;;;;;1.60;0.50;;;17.50;48.10;;;;;;2297192;55;21020;-67
2024/03/28 12:51:56;;;;;;;1.87;0.30;;;17.50;47.10;;;;;;2297245;55;20936;-67
2024/03/28 12:54:23;;;;;;;0.32;0.20;;;17.50;47.20;;;;;;2300338;55;21233;-67
2024/03/28 12:56:51;;;;;;;0.13;0.10;;;17.40;47.20;;;;;;2296929;55;20995;-68
2024/03/28 12:59:17;;;;;;;1.17;0.30;;;17.40;47.20;;;;;;2297261;55;20944;-67
2024/03/28 13:01:43;;;;;;;1.87;0.32;;;17.30;47.70;;;;;;2297110;55;21394;-66
2024/03/28 13:04:11;;;;;;;0.43;0.10;;;17.30;47.60;;;;;;2296972;55;20924;-68